Willsboro, New York
Current Conditions -  °F | °C
As of 2:54 AM on Friday 19 Dec 2014 (Local Time) from KBTV Reporting Station
Light Snow Light Snow  
Wind Chill: 19°   Ceiling: 2000
Heat Index: 29°   Visibility: 9mi
Dew Point: 21°   Wind: 12mph
Humidity: 72%   Direction: 330°NNW
Pressure: 29.95"   Gusts: NA
Location:  44.36°N, 73.39°W
Report Text: KBTV 190754Z 33010KT 9SM -SN OVC020 M02/M06 A2995 RMK AO2 SLP146 P0000 T10171061
Loading
Personal Weather Stations






























Interactive Weather Map New forecast layout! Learn more

10-Day Weather Forecast

Advertisements
Track Severe Weather on mobile